Boyd, Illinois
Current Conditions -  °F | °C
As of 3:55 PM on Monday 22 Dec 2014 (Local Time) from KENL Reporting Station
Moderate Rain Moderate Rain  
Wind Chill: 42°   Ceiling: 700
Heat Index: 47°   Visibility: 3mi
Dew Point: 45°   Wind: 14mph
Humidity: 92%   Direction: 130°SE
Pressure: 29.6"   Gusts: NA
Location:  38.4334°N, 88.9732°W
Report Text: KENL 222155Z AUTO 13012KT 3SM RA OVC007 09/07 A2960 RMK AO2 P0004 T00860073
Loading
Personal Weather Stations






























Interactive Weather Map New forecast layout! Learn more

10-Day Weather Forecast

Advertisements
Track Severe Weather on mobile